createdAt,value
2019-01-27T00:01:22.076Z,8.17
2019-01-27T00:03:52.478Z,8.14
2019-01-27T00:06:21.814Z,8.13
2019-01-27T00:08:51.176Z,8.13
2019-01-27T00:11:20.506Z,8.15
2019-01-27T00:13:49.874Z,8.18
2019-01-27T00:16:22.075Z,8.19
2019-01-27T00:18:51.625Z,8.21
2019-01-27T00:21:21.064Z,8.22
2019-01-27T00:23:50.460Z,8.22
2019-01-27T00:26:19.790Z,8.24
2019-01-27T00:28:49.172Z,8.22
2019-01-27T00:31:18.493Z,8.23
2019-01-27T00:33:47.853Z,8.22
2019-01-27T00:36:17.192Z,8.23
2019-01-27T00:38:46.545Z,8.23
2019-01-27T00:41:15.880Z,8.26
2019-01-27T00:43:45.220Z,8.30
2019-01-27T00:46:14.599Z,8.31
2019-01-27T00:48:44.022Z,8.33
2019-01-27T00:51:13.378Z,8.30
2019-01-27T00:53:42.723Z,8.27
2019-01-27T00:56:12.084Z,8.25
2019-01-27T00:58:41.423Z,8.24
2019-01-27T01:01:10.782Z,8.24
2019-01-27T01:03:40.143Z,8.21
2019-01-27T01:06:09.495Z,8.20
2019-01-27T01:08:38.828Z,8.17
2019-01-27T01:11:10.215Z,8.16
2019-01-27T01:13:39.542Z,8.16
2019-01-27T01:16:08.902Z,8.14
2019-01-27T01:18:38.348Z,8.14
2019-01-27T01:21:07.708Z,8.12
2019-01-27T01:23:37.076Z,8.12
2019-01-27T01:26:06.528Z,8.11
2019-01-27T01:28:35.863Z,8.09
2019-01-27T01:31:05.300Z,8.08
2019-01-27T01:33:34.650Z,8.09
2019-01-27T01:36:04.296Z,8.11
2019-01-27T01:38:33.653Z,8.11
2019-01-27T01:41:05.002Z,8.03
2019-01-27T01:43:34.355Z,7.93
2019-01-27T01:46:03.848Z,7.84
2019-01-27T01:48:33.197Z,7.76
2019-01-27T01:51:02.640Z,7.70
2019-01-27T01:53:31.974Z,7.61
2019-01-27T01:56:01.332Z,7.57
2019-01-27T01:58:30.712Z,7.55
2019-01-27T02:01:00.039Z,7.51
2019-01-27T02:03:29.400Z,7.50
2019-01-27T02:05:58.742Z,7.49
2019-01-27T02:08:28.360Z,7.50
2019-01-27T02:10:57.792Z,7.51
2019-01-27T02:13:29.366Z,7.50
2019-01-27T02:16:09.210Z,7.49
2019-01-27T02:18:41.057Z,7.47
2019-01-27T02:21:10.588Z,7.43
2019-01-27T02:23:39.928Z,7.37
2019-01-27T02:26:10.049Z,7.29
2019-01-27T02:28:39.373Z,7.27
2019-01-27T02:31:08.834Z,7.22
2019-01-27T02:33:38.175Z,7.17
2019-01-27T02:36:07.605Z,7.13
2019-01-27T02:38:36.963Z,7.10
2019-01-27T02:41:06.313Z,7.07
2019-01-27T02:43:35.651Z,7.05
2019-01-27T02:46:05.409Z,7.03
2019-01-27T02:48:34.927Z,7.04
2019-01-27T02:51:04.240Z,7.03
2019-01-27T02:53:33.587Z,7.04
2019-01-27T02:56:04.742Z,7.06
2019-01-27T02:58:34.079Z,7.05
2019-01-27T03:01:03.608Z,7.06
2019-01-27T03:03:32.977Z,7.07
2019-01-27T03:06:39.253Z,7.07
2019-01-27T03:09:18.771Z,7.11
2019-01-27T03:11:48.758Z,7.11
2019-01-27T03:14:19.442Z,7.09
2019-01-27T03:16:49.839Z,7.07
2019-01-27T03:19:19.193Z,7.05
2019-01-27T03:21:48.514Z,7.04
2019-01-27T03:24:19.563Z,7.04
2019-01-27T03:26:48.922Z,7.00
2019-01-27T03:29:18.246Z,6.97
2019-01-27T03:31:48.553Z,6.92
2019-01-27T03:34:17.865Z,6.88
2019-01-27T03:36:47.232Z,6.85
2019-01-27T03:39:16.566Z,6.80
2019-01-27T03:41:46.977Z,6.76
2019-01-27T03:44:17.525Z,6.74
2019-01-27T03:46:46.914Z,6.72
2019-01-27T03:49:16.276Z,6.66
2019-01-27T03:51:45.606Z,6.60
2019-01-27T03:54:14.956Z,6.57
2019-01-27T03:56:44.309Z,6.48
2019-01-27T03:59:13.674Z,6.43
2019-01-27T04:01:42.996Z,6.34
2019-01-27T04:04:12.365Z,6.27
2019-01-27T04:06:41.725Z,6.22
2019-01-27T04:09:14.365Z,6.17
2019-01-27T04:11:43.663Z,6.13
2019-01-27T04:14:13.027Z,6.08
2019-01-27T04:16:42.387Z,6.02
2019-01-27T04:19:12.863Z,5.99
2019-01-27T04:21:42.206Z,5.97
2019-01-27T04:24:11.567Z,5.94
2019-01-27T04:26:40.919Z,5.89
2019-01-27T04:29:10.251Z,5.87
2019-01-27T04:31:39.642Z,5.84
2019-01-27T04:34:09.082Z,5.82
2019-01-27T04:36:38.414Z,5.81
2019-01-27T04:39:10.492Z,5.79
2019-01-27T04:41:41.951Z,5.77
2019-01-27T04:44:11.302Z,5.73
2019-01-27T04:46:40.663Z,5.70
2019-01-27T04:49:11.080Z,5.69
2019-01-27T04:51:41.431Z,5.69
2019-01-27T04:54:10.798Z,5.78
2019-01-27T04:56:42.118Z,5.89
2019-01-27T04:59:11.475Z,5.96
2019-01-27T05:01:40.924Z,6.01
2019-01-27T05:04:19.290Z,6.04
2019-01-27T05:06:49.690Z,6.08
2019-01-27T05:09:26.106Z,6.11
2019-01-27T05:11:55.443Z,6.15
2019-01-27T05:14:24.796Z,6.16
2019-01-27T05:16:54.132Z,6.19
2019-01-27T05:19:23.530Z,6.20
2019-01-27T05:21:52.897Z,6.21
2019-01-27T05:24:22.219Z,6.21
2019-01-27T05:26:51.575Z,6.21
2019-01-27T05:29:20.936Z,6.23
2019-01-27T05:31:50.296Z,6.23
2019-01-27T05:34:19.638Z,6.24
2019-01-27T05:36:49.009Z,6.25
2019-01-27T05:39:18.344Z,6.27
2019-01-27T05:41:47.681Z,6.29
2019-01-27T05:44:17.054Z,6.30
2019-01-27T05:46:46.407Z,6.29
2019-01-27T05:49:15.752Z,6.31
2019-01-27T05:51:45.129Z,6.33
2019-01-27T05:54:14.481Z,6.29
2019-01-27T05:56:43.827Z,6.22
2019-01-27T05:59:13.189Z,6.16
2019-01-27T06:01:42.499Z,6.14
2019-01-27T06:04:11.851Z,6.12
2019-01-27T06:06:41.184Z,6.10
2019-01-27T06:09:11.545Z,6.07
2019-01-27T06:11:41.887Z,6.09
2019-01-27T06:14:11.242Z,6.10
2019-01-27T06:16:40.578Z,6.12
2019-01-27T06:19:09.932Z,6.11
2019-01-27T06:21:39.274Z,6.11
2019-01-27T06:24:08.675Z,6.12
2019-01-27T06:26:38.006Z,6.10
2019-01-27T06:29:08.385Z,6.12
2019-01-27T06:31:37.755Z,6.13
2019-01-27T06:34:10.088Z,6.14
2019-01-27T06:36:39.448Z,6.14
2019-01-27T06:39:10.426Z,6.06
2019-01-27T06:41:39.933Z,5.94
2019-01-27T06:44:09.306Z,5.84
2019-01-27T06:46:38.646Z,5.75
2019-01-27T06:49:08.024Z,5.54
2019-01-27T06:51:37.398Z,5.28
2019-01-27T06:54:09.112Z,5.14
2019-01-27T06:56:38.470Z,5.07
2019-01-27T06:59:26.761Z,5.02
2019-01-27T07:02:29.558Z,4.99
2019-01-27T07:05:17.685Z,4.98
2019-01-27T07:08:02.435Z,4.96
2019-01-27T07:10:50.705Z,4.97
2019-01-27T07:13:50.971Z,4.97
2019-01-27T07:16:37.919Z,4.95
2019-01-27T07:19:35.164Z,4.95
2019-01-27T07:22:21.957Z,4.96
2019-01-27T07:25:09.938Z,5.01
2019-01-27T07:28:07.357Z,5.06
2019-01-27T07:31:01.564Z,5.12
2019-01-27T07:33:56.116Z,5.18
2019-01-27T07:36:53.208Z,5.21
2019-01-27T07:39:29.754Z,5.30
2019-01-27T07:42:16.634Z,5.35
2019-01-27T07:45:08.009Z,5.45
2019-01-27T07:47:49.406Z,5.50
2019-01-27T07:50:32.018Z,5.53
2019-01-27T07:53:26.584Z,5.58
2019-01-27T07:56:04.599Z,5.63
2019-01-27T07:58:39.551Z,5.68
2019-01-27T08:01:16.120Z,5.72
2019-01-27T08:04:02.795Z,5.75
2019-01-27T08:06:44.558Z,5.76
2019-01-27T08:09:25.413Z,5.77
2019-01-27T08:12:12.480Z,5.79
2019-01-27T08:14:56.162Z,5.82
2019-01-27T08:20:40.018Z,5.85
2019-01-27T08:23:20.470Z,5.84
2019-01-27T08:26:16.438Z,5.84
2019-01-27T08:28:55.140Z,5.87
2019-01-27T08:31:57.348Z,5.90
2019-01-27T08:34:44.752Z,5.92
2019-01-27T08:37:22.491Z,5.96
2019-01-27T08:40:10.822Z,5.98
2019-01-27T08:43:05.979Z,6.01
2019-01-27T08:45:43.521Z,6.00
2019-01-27T08:48:12.856Z,5.99
2019-01-27T08:50:42.281Z,6.00
2019-01-27T08:53:11.673Z,6.03
2019-01-27T08:55:41.031Z,6.06
2019-01-27T08:58:10.429Z,6.08
2019-01-27T09:00:42.169Z,6.09
2019-01-27T09:03:29.151Z,6.11
2019-01-27T09:06:11.413Z,6.11
2019-01-27T09:08:58.516Z,6.14
2019-01-27T09:11:43.551Z,6.15
2019-01-27T09:14:33.479Z,6.16
2019-01-27T09:17:24.805Z,6.16
2019-01-27T09:20:22.052Z,6.18
2019-01-27T09:23:13.307Z,6.19
2019-01-27T09:25:57.605Z,6.20
2019-01-27T09:28:34.410Z,6.20
2019-01-27T09:31:18.402Z,6.21
2019-01-27T09:34:12.990Z,6.23
2019-01-27T09:37:02.440Z,6.24
2019-01-27T09:39:49.641Z,6.24
2019-01-27T09:42:36.702Z,6.24
2019-01-27T09:45:25.963Z,6.24
2019-01-27T09:48:17.161Z,6.24
2019-01-27T09:50:55.973Z,6.25
2019-01-27T09:56:31.788Z,6.27
2019-01-27T09:59:15.363Z,6.28
2019-01-27T10:01:56.319Z,6.30
2019-01-27T10:04:32.063Z,6.31
2019-01-27T10:07:19.002Z,6.33
2019-01-27T10:10:09.503Z,6.31
2019-01-27T10:12:53.269Z,6.33
2019-01-27T10:15:39.105Z,6.34
2019-01-27T10:18:30.428Z,6.35
2019-01-27T10:21:11.594Z,6.36
2019-01-27T10:23:58.586Z,6.37
2019-01-27T10:26:56.065Z,6.38
2019-01-27T10:29:35.939Z,6.39
2019-01-27T10:32:19.840Z,6.37
2019-01-27T10:35:11.248Z,6.38
2019-01-27T10:37:48.407Z,6.39
2019-01-27T10:40:26.033Z,6.41
2019-01-27T10:43:14.293Z,6.42
2019-01-27T10:46:11.372Z,6.44
2019-01-27T10:48:58.440Z,6.44
2019-01-27T10:51:49.521Z,6.44
2019-01-27T10:54:36.243Z,6.42
2019-01-27T10:57:13.902Z,6.43
2019-01-27T11:00:00.263Z,6.45
2019-01-27T11:03:03.539Z,6.47
2019-01-27T11:06:03.578Z,6.48
2019-01-27T11:08:51.844Z,6.52
2019-01-27T11:11:49.092Z,6.57
2019-01-27T11:14:36.204Z,6.57
2019-01-27T11:17:24.573Z,6.60
2019-01-27T11:20:12.851Z,6.61
2019-01-27T11:22:55.179Z,6.64
2019-01-27T11:25:41.833Z,6.66
2019-01-27T11:28:29.058Z,6.70
2019-01-27T11:31:24.592Z,6.72
2019-01-27T11:34:12.843Z,6.71
2019-01-27T11:36:58.303Z,6.68
2019-01-27T11:39:45.123Z,6.64
2019-01-27T11:42:42.255Z,6.65
2019-01-27T11:45:29.846Z,6.64
2019-01-27T11:48:29.990Z,6.65
2019-01-27T11:51:13.554Z,6.66
2019-01-27T11:53:42.923Z,6.66
2019-01-27T11:56:12.307Z,6.67
2019-01-27T11:58:41.637Z,6.73
2019-01-27T12:01:11.000Z,6.74
2019-01-27T12:03:42.464Z,6.75
2019-01-27T12:06:11.838Z,6.74
2019-01-27T12:08:41.209Z,6.75
2019-01-27T12:11:10.569Z,6.79
2019-01-27T12:13:39.901Z,6.82
2019-01-27T12:16:09.266Z,6.85
2019-01-27T12:18:38.671Z,6.87
2019-01-27T12:21:08.026Z,6.87
2019-01-27T12:23:37.381Z,6.84
2019-01-27T12:26:08.966Z,6.85
2019-01-27T12:28:38.337Z,6.89
2019-01-27T12:31:07.689Z,6.94
2019-01-27T12:33:37.060Z,6.97
2019-01-27T12:36:06.429Z,6.97
2019-01-27T12:38:35.744Z,6.96
2019-01-27T12:41:05.230Z,6.95
2019-01-27T12:43:34.567Z,6.95
2019-01-27T12:46:03.921Z,6.96
2019-01-27T12:48:33.304Z,7.00
2019-01-27T12:51:02.672Z,7.03
2019-01-27T12:53:32.042Z,7.06
2019-01-27T12:56:01.440Z,7.02
2019-01-27T12:58:30.777Z,6.99
2019-01-27T13:01:03.465Z,6.99
2019-01-27T13:03:32.836Z,7.03
2019-01-27T13:06:02.181Z,7.07
2019-01-27T13:08:31.559Z,7.05
2019-01-27T13:11:05.714Z,7.04
2019-01-27T13:13:33.327Z,7.08
2019-01-27T13:16:02.868Z,7.12
2019-01-27T13:18:32.224Z,7.15
2019-01-27T13:21:01.579Z,7.18
2019-01-27T13:23:33.825Z,7.17
2019-01-27T13:26:03.971Z,7.17
2019-01-27T13:28:33.372Z,7.17
2019-01-27T13:31:02.871Z,7.22
2019-01-27T13:33:32.217Z,7.23
2019-01-27T13:36:02.756Z,7.28
2019-01-27T13:38:32.152Z,7.26
2019-01-27T13:41:01.495Z,7.20
2019-01-27T13:43:30.860Z,7.19
2019-01-27T13:46:00.232Z,7.19
2019-01-27T13:48:29.661Z,7.25
2019-01-27T13:50:59.045Z,7.29
2019-01-27T13:53:28.465Z,7.33
2019-01-27T13:55:57.824Z,7.37
2019-01-27T13:58:27.278Z,7.34
2019-01-27T14:00:56.677Z,7.30
2019-01-27T14:03:26.085Z,7.28
2019-01-27T14:05:55.563Z,7.34
2019-01-27T14:08:24.939Z,7.41
2019-01-27T14:10:54.306Z,7.45
2019-01-27T14:13:23.654Z,7.42
2019-01-27T14:15:54.827Z,7.38
2019-01-27T14:18:24.180Z,7.34
2019-01-27T14:20:53.546Z,7.34
2019-01-27T14:23:22.888Z,7.37
2019-01-27T14:25:52.267Z,7.40
2019-01-27T14:28:21.757Z,7.45
2019-01-27T14:30:51.144Z,7.44
2019-01-27T14:33:20.410Z,7.42
2019-01-27T14:35:49.793Z,7.43
2019-01-27T14:38:19.138Z,7.46
2019-01-27T14:40:48.490Z,7.52
2019-01-27T14:43:17.842Z,7.54
2019-01-27T14:45:47.195Z,7.53
2019-01-27T14:48:16.581Z,7.44
2019-01-27T14:50:47.730Z,7.38
2019-01-27T14:53:19.239Z,7.33
2019-01-27T14:55:48.946Z,7.30
2019-01-27T14:58:18.313Z,7.29
2019-01-27T15:00:47.660Z,7.28
2019-01-27T15:03:17.053Z,7.32
2019-01-27T15:05:46.423Z,7.37
2019-01-27T15:08:15.787Z,7.37
2019-01-27T15:10:45.872Z,7.37
2019-01-27T15:13:15.323Z,7.36
2019-01-27T15:15:44.862Z,7.33
2019-01-27T15:18:14.541Z,7.31
2019-01-27T15:20:59.768Z,7.28
2019-01-27T15:23:29.138Z,7.23
2019-01-27T15:25:58.506Z,7.15
2019-01-27T15:28:27.987Z,7.09
2019-01-27T15:30:57.366Z,7.03
2019-01-27T15:33:26.712Z,7.00
2019-01-27T15:35:56.114Z,6.98
2019-01-27T15:38:28.331Z,6.95
2019-01-27T15:40:57.780Z,6.93
2019-01-27T15:43:27.178Z,6.93
2019-01-27T15:45:56.537Z,6.91
2019-01-27T15:48:25.902Z,6.89
2019-01-27T15:50:55.323Z,6.89
2019-01-27T15:53:24.759Z,6.88
2019-01-27T15:55:54.129Z,6.86
2019-01-27T15:58:23.501Z,6.84
2019-01-27T16:00:52.873Z,6.83
2019-01-27T16:03:22.200Z,6.80
2019-01-27T16:05:51.558Z,6.78
2019-01-27T16:08:20.927Z,6.76
2019-01-27T16:10:50.272Z,6.74
2019-01-27T16:13:21.691Z,6.72
2019-01-27T16:15:51.138Z,6.72
2019-01-27T16:18:20.499Z,6.71
2019-01-27T16:20:49.899Z,6.68
2019-01-27T16:23:36.856Z,6.63
2019-01-27T16:26:06.407Z,6.60
2019-01-27T16:28:35.922Z,6.56
2019-01-27T16:31:23.182Z,6.54
2019-01-27T16:34:14.512Z,6.52
2019-01-27T16:36:43.930Z,6.51
2019-01-27T16:39:13.548Z,6.49
2019-01-27T16:41:43.032Z,6.46
2019-01-27T16:44:12.682Z,6.42
2019-01-27T16:46:42.090Z,6.41
2019-01-27T16:49:11.463Z,6.42
2019-01-27T16:51:48.819Z,6.42
2019-01-27T16:54:11.933Z,6.42
2019-01-27T16:56:41.381Z,6.41
2019-01-27T16:59:10.760Z,6.39
2019-01-27T17:01:40.097Z,6.36
2019-01-27T17:04:09.460Z,6.31
2019-01-27T17:06:38.913Z,6.24
2019-01-27T17:09:10.464Z,6.16
2019-01-27T17:11:40.145Z,6.07
2019-01-27T17:14:09.565Z,6.00
2019-01-27T17:16:38.905Z,5.95
2019-01-27T17:19:08.325Z,5.90
2019-01-27T17:21:37.708Z,5.86
2019-01-27T17:24:07.148Z,5.86
2019-01-27T17:26:36.493Z,5.87
2019-01-27T17:29:06.466Z,5.89
2019-01-27T17:31:35.937Z,5.91
2019-01-27T17:34:05.648Z,5.93
2019-01-27T17:36:35.007Z,5.95
2019-01-27T17:39:09.550Z,5.97
2019-01-27T17:41:38.039Z,6.00
2019-01-27T17:44:07.401Z,6.04
2019-01-27T17:46:36.749Z,6.06
2019-01-27T17:49:06.184Z,6.08
2019-01-27T17:51:35.541Z,6.12
2019-01-27T17:54:07.180Z,6.14
2019-01-27T17:56:36.528Z,6.15
2019-01-27T17:59:39.756Z,6.17
2019-01-27T18:02:39.765Z,6.18
2019-01-27T18:05:21.004Z,6.18
2019-01-27T18:08:09.270Z,6.18
2019-01-27T18:10:57.559Z,6.16
2019-01-27T18:13:45.786Z,6.15
2019-01-27T18:16:15.165Z,6.14
2019-01-27T18:18:44.513Z,6.11
2019-01-27T18:21:13.863Z,6.11
2019-01-27T18:23:43.822Z,6.11
2019-01-27T18:26:13.174Z,6.11
2019-01-27T18:28:42.526Z,6.11
2019-01-27T18:31:11.948Z,6.11
2019-01-27T18:33:41.284Z,6.11
2019-01-27T18:36:10.674Z,6.12
2019-01-27T18:38:40.017Z,6.13
2019-01-27T18:41:09.355Z,6.14
2019-01-27T18:43:38.715Z,6.14
2019-01-27T18:46:08.170Z,6.15
2019-01-27T18:48:37.501Z,6.17
2019-01-27T18:51:07.077Z,6.18
2019-01-27T18:54:04.319Z,6.19
2019-01-27T18:56:42.176Z,6.20
2019-01-27T18:59:24.013Z,6.22
2019-01-27T19:02:02.581Z,6.22
2019-01-27T19:04:53.880Z,6.23
2019-01-27T19:07:54.422Z,6.24
2019-01-27T19:10:45.798Z,6.24
2019-01-27T19:13:21.265Z,6.25
2019-01-27T19:16:06.564Z,6.25
2019-01-27T19:18:53.470Z,6.26
2019-01-27T19:21:31.676Z,6.27
2019-01-27T19:24:26.036Z,6.30
2019-01-27T19:27:17.135Z,6.30
2019-01-27T19:30:11.592Z,6.31
2019-01-27T19:32:56.423Z,6.33
2019-01-27T19:39:02.350Z,6.35
2019-01-27T19:41:48.976Z,6.35
2019-01-27T19:44:38.160Z,6.34
2019-01-27T19:47:15.205Z,6.33
2019-01-27T19:50:09.320Z,6.30
2019-01-27T19:52:57.591Z,6.30
2019-01-27T19:55:50.534Z,6.29
2019-01-27T19:58:47.612Z,6.29
2019-01-27T20:01:26.591Z,6.27
2019-01-27T20:04:13.521Z,6.25
2019-01-27T20:07:00.536Z,6.23
2019-01-27T20:09:54.673Z,6.25
2019-01-27T20:12:42.922Z,6.25
2019-01-27T20:15:26.728Z,6.26
2019-01-27T20:18:12.939Z,6.25
2019-01-27T20:21:07.322Z,6.24
2019-01-27T20:23:55.599Z,6.24
2019-01-27T20:26:39.460Z,6.22
2019-01-27T20:29:49.518Z,6.21
2019-01-27T20:32:36.108Z,6.21
2019-01-27T20:35:34.118Z,6.23
2019-01-27T20:38:24.070Z,6.23
2019-01-27T20:41:12.315Z,6.24
2019-01-27T20:44:03.362Z,6.25
2019-01-27T20:47:00.425Z,6.25
2019-01-27T20:49:48.712Z,6.26
2019-01-27T20:52:33.478Z,6.27
2019-01-27T20:55:20.248Z,6.25
2019-01-27T20:58:11.553Z,6.24
2019-01-27T21:01:02.223Z,6.21
2019-01-27T21:03:52.869Z,6.20
2019-01-27T21:06:50.188Z,6.17
2019-01-27T21:09:37.285Z,6.14
2019-01-27T21:12:37.801Z,6.11
2019-01-27T21:15:33.217Z,6.07
2019-01-27T21:18:14.661Z,6.06
2019-01-27T21:20:44.022Z,6.04
2019-01-27T21:23:13.350Z,6.03
2019-01-27T21:25:42.715Z,6.02
2019-01-27T21:28:12.069Z,6.02
2019-01-27T21:30:41.454Z,6.01
2019-01-27T21:33:10.800Z,6.00
2019-01-27T21:35:40.181Z,5.98
2019-01-27T21:38:09.525Z,5.96
2019-01-27T21:40:38.888Z,5.94
2019-01-27T21:43:08.230Z,5.91
2019-01-27T21:45:37.594Z,5.90
2019-01-27T21:48:06.933Z,5.89
2019-01-27T21:50:36.306Z,5.88
2019-01-27T21:53:05.669Z,5.87
2019-01-27T21:55:35.009Z,5.87
2019-01-27T21:58:04.570Z,5.86
2019-01-27T22:00:33.952Z,5.84
2019-01-27T22:03:03.337Z,5.83
2019-01-27T22:05:32.653Z,5.79
2019-01-27T22:08:01.996Z,5.77
2019-01-27T22:10:31.364Z,5.75
2019-01-27T22:13:00.699Z,5.74
2019-01-27T22:15:30.068Z,5.73
2019-01-27T22:17:59.408Z,5.72
2019-01-27T22:20:28.756Z,5.71
2019-01-27T22:22:58.113Z,5.70
2019-01-27T22:25:27.485Z,5.70
2019-01-27T22:27:56.841Z,5.69
2019-01-27T22:30:26.190Z,5.67
2019-01-27T22:32:55.517Z,5.65
2019-01-27T22:35:27.649Z,5.63
2019-01-27T22:37:57.021Z,5.62
2019-01-27T22:40:26.402Z,5.61
2019-01-27T22:42:55.737Z,5.61
2019-01-27T22:45:25.102Z,5.60
2019-01-27T22:47:54.423Z,5.60
2019-01-27T22:50:23.765Z,5.59
2019-01-27T22:52:53.169Z,5.60
2019-01-27T22:55:22.511Z,5.60
2019-01-27T22:57:51.872Z,5.60
2019-01-27T23:00:56.098Z,5.60
2019-01-27T23:03:25.723Z,5.59
2019-01-27T23:05:55.089Z,5.59
2019-01-27T23:08:24.415Z,5.59
2019-01-27T23:10:53.776Z,5.57
2019-01-27T23:13:23.167Z,5.57
2019-01-27T23:15:52.530Z,5.57
2019-01-27T23:18:21.881Z,5.56
2019-01-27T23:20:51.222Z,5.54
2019-01-27T23:23:20.576Z,5.54
2019-01-27T23:25:50.496Z,5.52
2019-01-27T23:28:19.875Z,5.52
2019-01-27T23:30:49.265Z,5.51
2019-01-27T23:33:18.629Z,5.49
2019-01-27T23:35:48.009Z,5.49
2019-01-27T23:38:17.353Z,5.50
2019-01-27T23:40:46.721Z,5.51
2019-01-27T23:43:16.049Z,5.50
2019-01-27T23:45:45.377Z,5.50
2019-01-27T23:48:14.725Z,5.49
2019-01-27T23:50:44.068Z,5.50
2019-01-27T23:53:13.424Z,5.50
2019-01-27T23:55:42.762Z,5.48
2019-01-27T23:58:12.128Z,5.47
